Time;durP1;ratioP1;P1;durP2;ratioP2;P2;SDS_P1;SDS_P2;PMS_P1;PMS_P2;Temp;Humidity;BMP_temperature;BMP_pressure;BME280_temperature;BME280_humidity;BME280_pressure;Samples;Min_cycle;Max_cycle;Signal;HPM_P1;HPM_P2
2023/08/10 00:01:41;;;;;;;27.80;13.80;;;;;;;24.42;48.24;99165.30;136625;1264;22120;-60
2023/08/10 00:04:44;;;;;;;;;;;;;;;24.57;47.86;99166.98;136608;1281;22291;-60
2023/08/10 00:07:46;;;;;;;28.30;13.50;;;;;;;24.70;47.59;99169.70;136630;1281;22084;-60
2023/08/10 00:10:49;;;;;;;;;;;;;;;24.64;47.60;99176.28;136638;1281;22399;-60
2023/08/10 00:13:51;;;;;;;33.60;15.90;;;;;;;24.67;47.68;99173.09;136584;1281;23172;-60
2023/08/10 00:16:54;;;;;;;33.30;15.50;;;;;;;24.63;47.82;99168.75;136643;1281;22080;-60
2023/08/10 00:19:56;;;;;;;;;;;;;;;24.37;48.08;99171.66;136631;1281;22348;-60
2023/08/10 00:22:58;;;;;;;28.90;14.70;;;;;;;24.10;48.53;99176.21;136613;1281;22100;-60
2023/08/10 00:26:01;;;;;;;;;;;;;;;23.79;48.78;99176.97;136648;1281;22290;-59
2023/08/10 00:29:03;;;;;;;29.80;15.20;;;;;;;23.67;49.48;99175.29;136626;1281;22116;-60
2023/08/10 00:32:06;;;;;;;;;;;;;;;23.62;49.50;99178.38;136626;1279;22305;-60
2023/08/10 00:35:08;;;;;;;29.10;13.90;;;;;;;23.49;49.58;99177.61;136614;1281;22072;-60
2023/08/10 00:38:11;;;;;;;;;;;;;;;23.53;49.53;99180.24;136604;1281;22382;-60
2023/08/10 00:41:13;;;;;;;29.50;14.50;;;;;;;23.63;49.20;99182.12;136625;1281;22108;-60
2023/08/10 00:44:16;;;;;;;;;;;;;;;23.58;49.08;99188.54;136628;1281;23110;-60
2023/08/10 00:47:19;;;;;;;31.90;15.30;;;;;;;23.44;49.24;99197.28;136631;1280;22612;-60
2023/08/10 00:50:22;;;;;;;28.60;14.10;;;;;;;23.33;49.31;99193.80;136619;1262;22121;-60
2023/08/10 00:53:24;;;;;;;;;;;;;;;23.22;49.58;99191.77;136627;1281;22292;-60
2023/08/10 00:56:27;;;;;;;29.00;13.50;;;;;;;23.31;49.17;99196.15;136608;1281;22079;-60
2023/08/10 00:59:29;;;;;;;30.00;14.10;;;;;;;23.28;49.47;99196.31;136605;1281;22142;-60
2023/08/10 01:02:32;;;;;;;;;;;;;;;23.21;49.24;99196.21;136643;1281;22330;-60
2023/08/10 01:05:34;;;;;;;30.60;14.40;;;;;;;23.11;49.31;99194.34;136623;1281;22095;-60
2023/08/10 01:08:37;;;;;;;;;;;;;;;23.06;49.60;99196.49;136624;1281;22348;-60
2023/08/10 01:11:39;;;;;;;33.30;15.30;;;;;;;23.12;49.54;99198.39;136609;1281;22112;-60
2023/08/10 01:14:42;;;;;;;29.60;14.40;;;;;;;23.17;49.55;99196.61;136642;1258;22114;-60
2023/08/10 01:17:44;;;;;;;;;;;;;;;23.08;49.65;99207.64;136613;1281;22986;-60
2023/08/10 01:20:47;;;;;;;33.20;17.00;;;;;;;22.95;49.89;99204.40;136609;1281;22838;-60
2023/08/10 01:23:50;;;;;;;32.20;16.20;;;;;;;22.92;49.97;99210.95;136595;1281;22124;-60
2023/08/10 01:26:55;;;;;;;;;;;;;;;22.92;50.22;99211.69;136624;1281;22302;-60
2023/08/10 01:29:58;;;;;;;33.40;17.20;;;;;;;23.14;49.36;99211.76;136633;1281;22137;-60
2023/08/10 01:33:01;;;;;;;35.20;17.50;;;;;;;23.11;49.72;99214.87;136619;1281;22118;-60
2023/08/10 01:36:04;;;;;;;31.50;15.30;;;;;;;22.98;50.27;99218.75;136625;1281;22123;-60
2023/08/10 01:39:07;;;;;;;32.70;15.50;;;;;;;22.90;50.12;99217.42;136621;1281;22982;-60
2023/08/10 01:42:09;;;;;;;30.10;14.30;;;;;;;22.83;50.41;99220.65;136608;1281;22099;-60
2023/08/10 01:45:12;;;;;;;;;;;;;;;22.71;50.77;99226.96;136624;1281;22294;-60
2023/08/10 01:48:15;;;;;;;30.40;13.70;;;;;;;22.75;50.28;99226.44;136604;1281;22565;-60
2023/08/10 01:51:17;;;;;;;29.70;14.20;;;;;;;22.80;50.08;99226.66;136627;1281;22106;-60
2023/08/10 01:54:20;;;;;;;28.90;13.10;;;;;;;22.99;49.71;99226.52;136637;1281;22116;-60
2023/08/10 01:57:22;;;;;;;;;;;;;;;23.03;49.85;99227.66;136622;1281;23077;-60
2023/08/10 02:00:25;;;;;;;30.70;13.60;;;;;;;23.05;49.80;99230.11;136605;1281;22776;-60
2023/08/10 02:03:27;;;;;;;26.90;11.90;;;;;;;22.93;50.05;99225.89;136635;1281;22580;-60
2023/08/10 02:06:31;;;;;;;;;;;;;;;23.11;49.58;99229.96;136648;1281;23112;-60
2023/08/10 02:09:33;;;;;;;26.90;11.50;;;;;;;23.21;49.17;99235.04;136631;1281;22174;-60
2023/08/10 02:12:36;;;;;;;27.70;11.80;;;;;;;23.19;49.16;99231.70;136650;1281;22164;-60
2023/08/10 02:15:38;;;;;;;;;;;;;;;23.08;49.31;99231.05;136634;1281;23055;-60
2023/08/10 02:18:41;;;;;;;27.20;11.30;;;;;;;22.97;49.53;99230.30;136636;1263;22112;-60
2023/08/10 02:21:44;;;;;;;27.40;11.50;;;;;;;22.90;49.59;99231.02;136657;1281;22089;-60
2023/08/10 02:24:46;;;;;;;;;;;;;;;22.85;49.70;99236.17;136650;1281;23100;-60
2023/08/10 02:27:50;;;;;;;25.50;10.60;;;;;;;22.85;49.44;99235.10;136618;1281;22103;-60
2023/08/10 02:30:52;;;;;;;25.70;10.50;;;;;;;22.72;49.67;99240.23;136627;1264;22126;-60
2023/08/10 02:33:55;;;;;;;27.80;10.20;;;;;;;22.64;49.88;99241.04;136650;1264;22062;-60
2023/08/10 02:36:58;;;;;;;26.40;10.60;;;;;;;22.76;49.61;99244.29;136609;1264;22104;-60
2023/08/10 02:40:00;;;;;;;;;;;;;;;22.82;49.57;99247.15;136648;1281;23056;-60
2023/08/10 02:43:03;;;;;;;24.70;9.90;;;;;;;22.97;49.41;99245.27;136629;1281;22073;-60
2023/08/10 02:46:05;;;;;;;;;;;;;;;22.92;49.31;99245.02;136656;1281;22316;-60
2023/08/10 02:49:08;;;;;;;26.90;10.10;;;;;;;22.93;49.21;99249.16;136625;1281;22110;-60
2023/08/10 02:52:11;;;;;;;;;;;;;;;23.01;49.59;99249.41;136627;1281;22294;-60
2023/08/10 02:55:15;;;;;;;26.90;10.10;;;;;;;23.43;48.65;99244.45;136620;1281;22128;-60
2023/08/10 02:58:17;;;;;;;26.50;10.30;;;;;;;23.37;48.66;99248.66;136631;1281;22107;-60
2023/08/10 03:01:19;;;;;;;;;;;;;;;23.58;48.43;99250.92;136631;1262;22385;-60
2023/08/10 03:04:22;;;;;;;27.60;11.60;;;;;;;23.65;48.39;99251.23;136620;1281;22064;-60
2023/08/10 03:07:26;;;;;;;25.20;10.40;;;;;;;23.55;48.44;99258.55;136644;1281;22939;-60
2023/08/10 03:10:28;;;;;;;24.40;10.30;;;;;;;23.68;47.94;99261.07;136642;1281;22275;-60
2023/08/10 03:13:31;;;;;;;;;;;;;;;23.52;48.39;99257.95;136659;1281;22287;-60
2023/08/10 03:16:33;;;;;;;23.90;9.80;;;;;;;23.50;48.59;99259.95;136635;1281;22560;-60
2023/08/10 03:19:44;;;;;;;24.90;10.30;;;;;;;23.56;48.61;99257.72;132526;1281;5354267;-60
2023/08/10 03:22:47;;;;;;;;;;;;;;;23.71;48.55;99258.95;136643;1281;22386;-60
2023/08/10 03:25:49;;;;;;;26.50;11.20;;;;;;;23.91;48.23;99263.35;136637;1281;22080;-60
2023/08/10 03:28:51;;;;;;;;;;;;;;;23.92;47.98;99263.80;136631;1281;23130;-60
2023/08/10 03:31:54;;;;;;;26.30;10.90;;;;;;;23.70;48.57;99262.80;136641;1281;22779;-60
2023/08/10 03:34:56;;;;;;;28.90;13.20;;;;;;;23.77;48.46;99265.91;136638;1281;22835;-60
2023/08/10 03:37:59;;;;;;;;;;;;;;;23.62;48.88;99263.65;136637;1281;22299;-60
2023/08/10 03:41:01;;;;;;;30.60;12.20;;;;;;;23.60;49.06;99266.42;136598;1281;22710;-60
2023/08/10 03:44:04;;;;;;;27.90;12.10;;;;;;;23.59;48.87;99267.02;136641;1281;22870;-60
2023/08/10 03:47:06;;;;;;;;;;;;;;;23.79;49.05;99270.33;136619;1264;22304;-60
2023/08/10 03:50:10;;;;;;;29.10;13.00;;;;;;;23.95;48.85;99273.87;136628;1264;22204;-60
2023/08/10 03:53:12;;;;;;;27.80;12.50;;;;;;;24.12;48.48;99275.02;136658;1281;22116;-60
2023/08/10 03:56:15;;;;;;;;;;;;;;;24.32;48.34;99278.11;136651;1264;22331;-60
2023/08/10 03:59:17;;;;;;;30.30;13.00;;;;;;;24.70;47.59;99285.31;136620;1281;22124;-60
2023/08/10 04:02:20;;;;;;;34.70;13.70;;;;;;;24.67;47.45;99286.13;136617;1281;22769;-60
2023/08/10 04:05:22;;;;;;;32.70;13.10;;;;;;;24.35;47.84;99291.25;136638;1281;22075;-60
2023/08/10 04:08:24;;;;;;;;;;;;;;;24.47;48.09;99292.73;136654;1281;23148;-60
2023/08/10 04:11:27;;;;;;;29.50;13.90;;;;;;;24.64;48.13;99292.42;136606;1264;22114;-60
2023/08/10 04:14:29;;;;;;;;;;;;;;;24.53;47.71;99293.48;136633;1281;22393;-60
2023/08/10 04:17:32;;;;;;;29.80;12.40;;;;;;;24.38;47.94;99288.96;136631;1281;22164;-60
2023/08/10 04:20:35;;;;;;;;;;;;;;;24.51;47.98;99289.40;136651;1281;22425;-60
2023/08/10 04:23:37;;;;;;;29.50;12.40;;;;;;;24.71;47.71;99293.91;136647;1257;22094;-60
2023/08/10 04:26:39;;;;;;;;;;;;;;;24.81;47.88;99294.92;136658;1264;22315;-60
2023/08/10 04:29:43;;;;;;;29.20;12.20;;;;;;;25.01;47.33;99293.81;136634;1281;22147;-60
2023/08/10 04:32:45;;;;;;;30.90;11.70;;;;;;;24.83;47.09;99290.92;136613;1281;22150;-60
2023/08/10 04:35:47;;;;;;;;;;;;;;;25.03;46.87;99295.24;136666;1262;22313;-60
2023/08/10 04:38:51;;;;;;;32.10;12.90;;;;;;;25.04;46.71;99296.39;136639;1275;22078;-60
2023/08/10 04:41:54;;;;;;;27.80;12.70;;;;;;;24.62;47.27;99297.39;136606;1277;22741;-60
2023/08/10 04:44:56;;;;;;;;;;;;;;;24.61;47.55;99301.45;136662;1281;22895;-60
2023/08/10 04:47:59;;;;;;;31.30;11.80;;;;;;;24.69;47.46;99302.55;136639;1281;22206;-60
2023/08/10 04:51:01;;;;;;;25.00;11.40;;;;;;;24.63;47.68;99303.88;136629;1261;22098;-60
2023/08/10 04:54:04;;;;;;;30.20;12.20;;;;;;;24.81;47.31;99307.90;136632;1281;22197;-60
2023/08/10 04:57:06;;;;;;;29.60;12.20;;;;;;;24.83;47.07;99307.34;136635;1281;22215;-60
2023/08/10 05:00:13;;;;;;;32.60;13.30;;;;;;;24.78;47.11;99306.96;136637;1261;22090;-60
2023/08/10 05:03:15;;;;;;;33.20;14.00;;;;;;;24.82;47.50;99305.71;136649;1281;22921;-60
2023/08/10 05:06:18;;;;;;;;;;;;;;;25.21;46.74;99309.41;136647;1281;22403;-60
2023/08/10 05:09:20;;;;;;;28.60;13.30;;;;;;;25.30;46.59;99314.02;136650;1281;22130;-60
2023/08/10 05:12:22;;;;;;;;;;;;;;;25.28;46.59;99319.04;136646;1281;22439;-60
2023/08/10 05:15:25;;;;;;;33.30;11.80;;;;;;;25.29;46.17;99320.38;136630;1281;22153;-60
2023/08/10 05:18:27;;;;;;;;;;;;;;;25.01;47.05;99326.11;136644;1281;22342;-60
2023/08/10 05:21:30;;;;;;;30.50;13.50;;;;;;;25.04;46.91;99333.45;136647;1281;22613;-60
2023/08/10 05:24:33;;;;;;;28.60;12.90;;;;;;;24.73;47.28;99337.24;136645;1281;22143;-60
2023/08/10 05:27:35;;;;;;;28.70;13.00;;;;;;;24.46;47.48;99340.63;136607;1262;22133;-60
2023/08/10 05:30:38;;;;;;;;;;;;;;;24.35;48.30;99337.72;136626;1281;22371;-60
2023/08/10 05:33:41;;;;;;;28.70;12.40;;;;;;;24.68;47.84;99342.66;136634;1281;22286;-60
2023/08/10 05:36:43;;;;;;;27.20;10.90;;;;;;;24.83;47.21;99344.20;136627;1281;22929;-60
2023/08/10 05:39:46;;;;;;;;;;;;;;;24.67;47.09;99348.80;136651;1261;22252;-60
2023/08/10 05:42:48;;;;;;;27.90;13.00;;;;;;;24.44;47.28;99357.13;136623;1281;22102;-60
2023/08/10 05:45:51;;;;;;;;;;;;;;;24.45;47.69;99358.98;136652;1281;22330;-60
2023/08/10 05:48:53;;;;;;;22.80;9.60;;;;;;;24.40;47.97;99356.98;136656;1258;22068;-60
2023/08/10 05:51:56;;;;;;;30.00;11.00;;;;;;;24.57;47.52;99357.13;136625;1281;22126;-60
2023/08/10 05:54:58;;;;;;;24.00;9.70;;;;;;;24.75;47.69;99357.96;136623;1281;22762;-60
2023/08/10 05:58:01;;;;;;;24.20;10.10;;;;;;;25.15;47.22;99361.53;136613;1271;22271;-60
2023/08/10 06:01:05;;;;;;;19.90;8.10;;;;;;;25.49;46.56;99359.58;136662;1281;22074;-60
2023/08/10 06:04:07;;;;;;;20.70;8.20;;;;;;;25.45;45.99;99365.44;136643;1281;22871;-60
2023/08/10 06:07:09;;;;;;;;;;;;;;;25.25;46.36;99367.83;136655;1281;22213;-60
2023/08/10 06:10:12;;;;;;;22.50;9.50;;;;;;;25.60;45.76;99370.52;136643;1274;22121;-60
2023/08/10 06:13:17;;;;;;;21.90;8.60;;;;;;;25.71;45.83;99376.21;136640;1281;22758;-60
2023/08/10 06:16:21;;;;;;;23.70;10.00;;;;;;;25.86;45.82;99380.11;136648;1281;22099;-60
2023/08/10 06:19:24;;;;;;;26.10;10.90;;;;;;;25.68;45.42;99385.54;136621;1281;22091;-60
2023/08/10 06:22:27;;;;;;;26.10;11.20;;;;;;;25.56;45.98;99384.45;136637;1281;22095;-60
2023/08/10 06:25:30;;;;;;;23.70;10.10;;;;;;;25.51;46.55;99383.52;136629;1281;22096;-60
2023/08/10 06:28:33;;;;;;;21.20;8.90;;;;;;;25.71;46.09;99387.41;136650;1281;22077;-60
2023/08/10 06:31:35;;;;;;;21.40;8.50;;;;;;;26.12;45.63;99391.05;136630;1281;22967;-60
2023/08/10 06:34:38;;;;;;;21.50;8.50;;;;;;;26.19;45.03;99393.48;136646;1262;22543;-60
2023/08/10 06:37:42;;;;;;;21.10;9.00;;;;;;;26.13;45.32;99393.31;136616;1281;22095;-60
2023/08/10 06:40:44;;;;;;;19.90;8.10;;;;;;;26.23;45.39;99398.13;136626;1281;22927;-60
2023/08/10 06:43:46;;;;;;;;;;;;;;;26.11;44.88;99403.50;136637;1281;22317;-60
2023/08/10 06:46:49;;;;;;;21.30;8.60;;;;;;;25.75;45.10;99403.42;136647;1281;22866;-60
2023/08/10 06:49:51;;;;;;;24.10;11.00;;;;;;;25.57;45.77;99404.34;136623;1281;22813;-60
2023/08/10 06:52:54;;;;;;;25.00;10.00;;;;;;;25.49;45.70;99410.45;136632;1281;22875;-60
2023/08/10 06:55:56;;;;;;;25.00;9.30;;;;;;;25.65;45.50;99408.75;136641;1281;22089;-60
2023/08/10 06:58:59;;;;;;;21.50;8.40;;;;;;;25.87;45.54;99407.73;136613;1281;22190;-60
2023/08/10 07:02:02;;;;;;;20.60;9.20;;;;;;;26.23;45.21;99408.74;136646;1281;22155;-60
2023/08/10 07:05:04;;;;;;;20.50;8.30;;;;;;;26.29;44.45;99413.11;136624;1281;22203;-60
2023/08/10 07:08:08;;;;;;;22.00;9.10;;;;;;;26.21;44.45;99413.27;136638;1281;22944;-60
2023/08/10 07:11:11;;;;;;;21.80;8.70;;;;;;;26.20;44.65;99411.06;136629;1281;22078;-60
2023/08/10 07:14:15;;;;;;;20.60;8.30;;;;;;;26.20;44.50;99412.13;136624;1281;22137;-60
2023/08/10 07:17:18;;;;;;;21.80;8.60;;;;;;;26.24;45.09;99417.23;136632;1281;22075;-60
2023/08/10 07:20:20;;;;;;;19.30;8.00;;;;;;;26.70;45.14;99418.11;136639;1281;22080;-60
2023/08/10 07:23:23;;;;;;;20.70;8.00;;;;;;;27.29;44.50;99423.63;136645;1281;22841;-60
2023/08/10 07:26:25;;;;;;;20.00;7.80;;;;;;;27.88;43.55;99421.97;136626;1281;22248;-60
2023/08/10 07:29:28;;;;;;;21.30;7.40;;;;;;;28.12;42.81;99420.11;136618;1281;22088;-60
2023/08/10 07:32:30;;;;;;;20.50;7.10;;;;;;;28.39;42.79;99418.69;136606;1262;22125;-60
2023/08/10 07:35:33;;;;;;;20.00;7.50;;;;;;;29.12;42.29;99422.52;136633;1281;22306;-60
2023/08/10 07:38:35;;;;;;;19.00;7.20;;;;;;;29.49;41.98;99421.79;136596;1281;22118;-60
2023/08/10 07:41:38;;;;;;;21.80;9.00;;;;;;;30.18;40.60;99420.90;136617;1281;22922;-60
2023/08/10 07:44:40;;;;;;;23.90;8.00;;;;;;;30.45;40.28;99422.61;136631;1281;22159;-60
2023/08/10 07:47:42;;;;;;;20.90;8.50;;;;;;;30.63;40.55;99418.49;136627;1281;22172;-60
2023/08/10 07:50:46;;;;;;;18.30;7.40;;;;;;;30.89;39.02;99415.95;136645;1281;22143;-60
2023/08/10 07:53:49;;;;;;;21.20;7.30;;;;;;;30.39;39.66;99413.33;136606;1281;22061;-60
2023/08/10 07:56:51;;;;;;;21.20;7.80;;;;;;;30.50;39.27;99413.34;136616;1281;22124;-60
2023/08/10 07:59:54;;;;;;;22.10;7.90;;;;;;;30.33;39.49;99407.27;136624;1281;22885;-60
2023/08/10 08:02:56;;;;;;;20.00;7.80;;;;;;;30.68;40.22;99409.56;136641;1281;22089;-60
2023/08/10 08:05:59;;;;;;;18.90;7.00;;;;;;;31.25;39.77;99410.61;136629;1281;22762;-60
2023/08/10 08:09:03;;;;;;;17.80;7.20;;;;;;;31.68;39.45;99410.56;136595;1281;22079;-60
2023/08/10 08:12:05;;;;;;;20.50;7.00;;;;;;;32.09;38.72;99411.27;136606;1281;22122;-60
2023/08/10 08:15:08;;;;;;;19.30;7.00;;;;;;;32.29;37.50;99411.91;136613;1281;22114;-60
2023/08/10 08:18:11;;;;;;;18.80;6.60;;;;;;;32.28;37.32;99417.48;136625;1262;22106;-60
2023/08/10 08:21:13;;;;;;;17.70;6.80;;;;;;;31.80;36.06;99420.72;136612;1281;22081;-60
2023/08/10 08:24:17;;;;;;;16.00;6.20;;;;;;;31.64;36.59;99414.20;136621;1281;22804;-60
2023/08/10 08:27:19;;;;;;;18.60;6.80;;;;;;;31.84;37.13;99407.20;136636;1281;22065;-60
2023/08/10 08:30:25;;;;;;;20.80;7.60;;;;;;;32.31;36.47;99408.61;136620;1281;22098;-60
2023/08/10 08:33:27;;;;;;;17.80;6.10;;;;;;;32.38;36.17;99411.39;136614;1281;22112;-60
2023/08/10 08:36:30;;;;;;;20.50;6.40;;;;;;;32.08;34.81;99416.23;136611;1281;23040;-60
2023/08/10 08:39:32;;;;;;;16.80;5.40;;;;;;;32.01;35.95;99413.57;136612;1280;23119;-60
2023/08/10 08:42:34;;;;;;;14.00;4.90;;;;;;;32.60;36.35;99405.63;136629;1281;22950;-60
2023/08/10 08:45:37;;;;;;;13.60;4.90;;;;;;;33.26;35.91;99404.04;136630;1262;22147;-60
2023/08/10 08:48:39;;;;;;;13.30;4.70;;;;;;;33.77;35.25;99402.10;136611;1281;22083;-60
2023/08/10 08:51:42;;;;;;;12.40;4.20;;;;;;;34.37;34.57;99399.73;136596;1281;22114;-60
2023/08/10 08:54:44;;;;;;;11.50;4.00;;;;;;;34.78;33.52;99403.30;136625;1281;22129;-60
2023/08/10 08:57:47;;;;;;;16.10;4.50;;;;;;;35.19;33.71;99405.17;136624;1281;22118;-60
2023/08/10 09:00:50;;;;;;;12.80;3.90;;;;;;;34.94;31.37;99406.97;136610;1262;22568;-60
2023/08/10 09:03:53;;;;;;;11.90;3.90;;;;;;;34.96;32.01;99405.98;136625;1281;22204;-60
2023/08/10 09:06:55;;;;;;;11.60;3.20;;;;;;;34.95;30.94;99408.48;136613;1281;22172;-60
2023/08/10 09:09:57;;;;;;;10.10;3.00;;;;;;;34.26;31.54;99407.95;136616;1281;22831;-60
2023/08/10 09:13:00;;;;;;;9.90;2.70;;;;;;;33.84;31.54;99409.82;136595;1281;22137;-60
2023/08/10 09:16:02;;;;;;;9.00;2.80;;;;;;;33.60;30.28;99409.31;136609;1281;22095;-60
2023/08/10 09:19:04;;;;;;;10.30;3.10;;;;;;;33.25;31.34;99414.12;136612;1281;22091;-60
2023/08/10 09:22:07;;;;;;;7.50;2.80;;;;;;;33.51;30.66;99415.85;136609;1281;22187;-60
2023/08/10 09:25:09;;;;;;;12.80;3.30;;;;;;;33.89;30.69;99414.38;136598;1281;22806;-60
2023/08/10 09:28:12;;;;;;;8.30;2.80;;;;;;;34.31;30.71;99413.45;136614;1281;22097;-60
2023/08/10 09:31:14;;;;;;;8.50;2.70;;;;;;;34.63;29.49;99418.05;136619;1281;22088;-60
2023/08/10 09:34:17;;;;;;;8.10;2.80;;;;;;;34.42;29.45;99409.71;136610;1281;22305;-60
2023/08/10 09:37:19;;;;;;;11.60;2.60;;;;;;;35.02;29.99;99412.98;136621;1281;22289;-60
2023/08/10 09:40:22;;;;;;;7.80;2.10;;;;;;;35.39;28.17;99416.52;136617;1281;22165;-60
2023/08/10 09:56:53;;;;;;;8.60;2.20;;;;;;;32.82;30.67;99414.48;132104;1301;558460;-63
2023/08/10 09:59:55;;;;;;;11.20;2.70;;;;;;;33.49;29.13;99411.41;130545;1292;5322638;-61
2023/08/10 10:02:58;;;;;;;7.50;2.30;;;;;;;33.94;29.77;99410.20;134627;1291;22539;-62
2023/08/10 10:06:01;;;;;;;7.80;2.50;;;;;;;34.30;28.48;99413.73;134670;1271;22557;-62
2023/08/10 10:09:04;;;;;;;7.40;2.20;;;;;;;33.99;28.12;99419.96;134633;1291;24216;-63
2023/08/10 10:12:06;;;;;;;6.30;2.20;;;;;;;33.18;27.85;99417.36;134633;1291;22650;-63
2023/08/10 10:15:08;;;;;;;8.90;2.40;;;;;;;32.31;28.00;99418.60;134653;1291;22559;-64
2023/08/10 10:18:11;;;;;;;6.00;2.00;;;;;;;32.05;28.23;99415.50;134997;1284;22527;-62
2023/08/10 10:21:13;;;;;;;8.60;2.20;;;;;;;32.07;28.25;99409.64;134974;1284;25416;-61
2023/08/10 10:24:17;;;;;;;9.30;2.30;;;;;;;31.99;28.47;99405.79;134959;1284;22533;-65
2023/08/10 10:27:20;;;;;;;8.40;2.20;;;;;;;31.83;28.26;99403.59;135552;1280;25375;-62
2023/08/10 10:30:22;;;;;;;7.70;2.00;;;;;;;32.14;27.24;99397.75;135570;1280;22678;-62
2023/08/10 10:33:25;;;;;;;5.40;1.50;;;;;;;31.90;26.44;99398.08;135579;1280;22566;-62
2023/08/10 10:36:27;;;;;;;6.30;2.20;;;;;;;32.49;28.17;99391.08;135613;1280;25310;-61
2023/08/10 10:39:29;;;;;;;11.00;2.70;;;;;;;33.17;28.07;99393.61;135605;1280;22526;-61
2023/08/10 10:42:32;;;;;;;6.90;2.50;;;;;;;33.41;27.86;99395.07;135562;1280;22579;-61
2023/08/10 10:45:34;;;;;;;6.40;2.20;;;;;;;34.11;27.98;99390.27;135631;1280;25262;-60
2023/08/10 10:48:37;;;;;;;8.80;2.40;;;;;;;34.15;26.90;99393.86;135560;1280;22526;-64
2023/08/10 10:51:39;;;;;;;7.70;2.30;;;;;;;33.99;26.72;99390.76;135582;1280;22569;-62
2023/08/10 10:54:41;;;;;;;8.10;2.20;;;;;;;34.05;27.75;99383.70;135573;1280;22542;-62
2023/08/10 10:57:44;;;;;;;7.80;2.20;;;;;;;34.50;26.88;99384.57;135588;1278;24262;-62
2023/08/10 11:00:47;;;;;;;5.20;1.70;;;;;;;34.92;26.45;99382.75;135631;1280;22517;-63
2023/08/10 11:03:49;;;;;;;7.40;2.00;;;;;;;35.02;25.14;99385.58;135567;1280;24239;-61
2023/08/10 11:06:52;;;;;;;8.20;2.20;;;;;;;35.32;25.22;99388.38;135569;1280;22544;-62
2023/08/10 11:09:54;;;;;;;8.20;2.30;;;;;;;35.35;23.74;99387.13;135581;1280;22567;-62
2023/08/10 11:12:57;;;;;;;7.60;2.30;;;;;;;34.54;23.53;99383.86;135596;1280;22537;-62
2023/08/10 11:15:59;;;;;;;9.90;2.30;;;;;;;34.28;24.64;99379.16;135575;1280;22700;-62
2023/08/10 11:19:02;;;;;;;7.30;2.30;;;;;;;34.68;25.23;99378.17;135594;1280;25463;-61
2023/08/10 11:22:04;;;;;;;8.40;2.20;;;;;;;34.73;24.92;99381.00;135625;1278;25497;-63
2023/08/10 11:25:08;;;;;;;5.30;1.90;;;;;;;34.82;25.27;99380.67;135621;1280;22536;-64
2023/08/10 11:28:10;;;;;;;4.70;1.90;;;;;;;35.48;24.53;99382.41;135580;1280;22532;-61
2023/08/10 11:31:14;;;;;;;9.60;2.20;;;;;;;36.10;25.39;99377.81;135557;1280;22709;-62
2023/08/10 11:34:16;;;;;;;7.20;1.90;;;;;;;36.40;23.64;99376.86;135599;1280;22545;-63
2023/08/10 11:37:19;;;;;;;5.70;1.70;;;;;;;35.98;23.68;99383.44;135587;1280;22535;-63
2023/08/10 11:40:21;;;;;;;6.50;1.90;;;;;;;35.95;24.57;99386.23;135573;1280;22555;-65
2023/08/10 11:43:25;;;;;;;6.50;1.90;;;;;;;35.55;22.95;99387.61;135627;1280;22526;-62
2023/08/10 11:46:27;;;;;;;8.80;2.20;;;;;;;34.36;23.19;99384.30;135564;1280;22541;-62
2023/08/10 11:49:30;;;;;;;7.60;1.70;;;;;;;33.81;23.51;99377.41;135604;1280;22645;-64
2023/08/10 11:52:32;;;;;;;6.80;1.60;;;;;;;33.49;23.62;99379.56;135585;1280;22534;-63
2023/08/10 11:55:34;;;;;;;8.00;1.60;;;;;;;33.84;23.61;99376.75;135540;1280;22530;-62
2023/08/10 11:58:37;;;;;;;5.70;1.70;;;;;;;34.60;23.99;99372.69;135623;1280;22538;-63
2023/08/10 12:01:40;;;;;;;4.50;1.70;;;;;;;35.61;23.11;99374.11;135517;1280;22534;-62
2023/08/10 12:04:42;;;;;;;5.90;1.70;;;;;;;35.68;22.49;99370.36;135610;1280;25226;-62
2023/08/10 12:07:45;;;;;;;5.90;2.00;;;;;;;35.76;22.73;99374.74;135587;1280;22557;-63
2023/08/10 12:10:50;;;;;;;6.50;1.70;;;;;;;35.96;22.79;99373.41;135452;1280;22564;-64
2023/08/10 12:13:54;;;;;;;7.60;1.70;;;;;;;36.34;22.81;99369.18;135577;1280;22571;-63
2023/08/10 12:16:56;;;;;;;8.00;1.80;;;;;;;36.96;23.43;99363.39;135604;1280;22831;-63
2023/08/10 12:19:59;;;;;;;7.80;2.00;;;;;;;37.21;23.32;99362.71;135569;1280;22533;-62
2023/08/10 12:23:01;;;;;;;4.90;1.70;;;;;;;37.52;22.85;99361.76;135576;1266;22583;-61
2023/08/10 12:26:04;;;;;;;3.30;1.50;;;;;;;37.81;22.01;99358.16;135504;1280;24276;-61
2023/08/10 12:29:07;;;;;;;4.70;1.80;;;;;;;38.04;22.48;99356.59;135586;1280;23126;-64
2023/08/10 12:32:09;;;;;;;6.80;1.90;;;;;;;37.76;22.01;99363.08;135559;1280;22530;-62
2023/08/10 12:35:12;;;;;;;6.90;2.00;;;;;;;37.11;21.77;99354.33;135622;1280;22539;-62
2023/08/10 12:38:15;;;;;;;7.10;2.00;;;;;;;35.76;21.88;99358.46;135582;1265;22527;-62
2023/08/10 12:41:18;;;;;;;9.30;2.00;;;;;;;34.64;22.62;99356.09;135559;1280;25370;-62
2023/08/10 12:44:20;;;;;;;6.10;2.10;;;;;;;33.80;23.21;99354.08;135595;1280;22624;-64
2023/08/10 12:47:22;;;;;;;5.80;1.80;;;;;;;33.32;23.76;99352.67;135591;1280;22551;-62
2023/08/10 12:50:25;;;;;;;7.50;1.80;;;;;;;33.84;23.76;99342.09;135592;1280;22564;-62
2023/08/10 12:53:27;;;;;;;8.10;1.90;;;;;;;34.35;23.92;99336.80;135606;1280;22532;-64
2023/08/10 12:56:31;;;;;;;5.60;1.80;;;;;;;35.17;23.54;99335.25;135633;1262;22544;-64
2023/08/10 12:59:33;;;;;;;7.00;1.80;;;;;;;35.09;22.48;99340.58;135629;1280;22543;-65
2023/08/10 13:02:36;;;;;;;5.50;1.50;;;;;;;34.98;23.22;99334.63;135587;1280;22530;-65
2023/08/10 13:05:38;;;;;;;6.30;1.70;;;;;;;34.97;22.89;99337.02;135567;1280;22540;-62
2023/08/10 13:08:40;;;;;;;7.00;1.70;;;;;;;34.77;22.18;99339.42;135594;1265;22520;-62
2023/08/10 13:11:43;;;;;;;5.90;2.10;;;;;;;34.64;22.18;99337.30;135603;1280;22550;-63
2023/08/10 13:14:46;;;;;;;3.40;1.50;;;;;;;34.89;22.25;99335.83;135588;1280;24271;-64
2023/08/10 13:17:49;;;;;;;8.00;1.70;;;;;;;35.48;21.53;99329.84;135578;1280;22530;-63
2023/08/10 13:20:51;;;;;;;6.40;1.80;;;;;;;35.93;21.32;99332.33;135531;1280;22560;-63
2023/08/10 13:23:53;;;;;;;6.90;1.50;;;;;;;36.22;21.66;99331.14;135574;1280;22536;-63
2023/08/10 13:26:56;;;;;;;7.80;1.90;;;;;;;36.40;21.53;99327.89;135664;1280;25322;-63
2023/08/10 13:29:58;;;;;;;6.80;1.60;;;;;;;36.18;20.87;99330.81;135651;1280;22543;-62
2023/08/10 13:33:01;;;;;;;5.10;1.60;;;;;;;35.58;21.17;99329.37;135602;1270;22546;-62
2023/08/10 13:36:04;;;;;;;5.30;1.60;;;;;;;35.61;21.88;99328.48;135617;1280;22529;-62
2023/08/10 13:39:07;;;;;;;4.00;1.50;;;;;;;35.78;21.72;99329.67;135614;1280;22534;-63
2023/08/10 13:42:09;;;;;;;9.30;2.00;;;;;;;35.47;21.35;99330.05;135634;1280;22533;-62
2023/08/10 13:45:11;;;;;;;9.40;1.90;;;;;;;35.55;21.16;99327.40;135595;1277;22537;-63
2023/08/10 13:48:14;;;;;;;8.50;1.80;;;;;;;36.06;21.98;99323.40;135618;1280;25749;-64
2023/08/10 13:51:16;;;;;;;6.80;1.80;;;;;;;36.47;20.91;99322.52;135609;1280;22541;-62
2023/08/10 13:54:19;;;;;;;8.80;1.60;;;;;;;36.85;21.10;99317.48;135568;1280;22567;-64
2023/08/10 13:57:21;;;;;;;4.80;1.50;;;;;;;37.34;21.43;99315.00;135605;1280;24023;-66
2023/08/10 14:00:24;;;;;;;3.00;1.40;;;;;;;37.18;20.83;99318.71;135603;1280;24878;-61
2023/08/10 14:03:26;;;;;;;6.10;1.80;;;;;;;36.65;20.14;99315.30;135629;1265;22506;-64
2023/08/10 14:06:29;;;;;;;4.20;1.50;;;;;;;36.15;20.79;99318.42;135577;1280;22535;-63
2023/08/10 14:09:32;;;;;;;6.90;1.60;;;;;;;36.01;20.97;99315.70;135557;1280;22526;-63
2023/08/10 14:12:34;;;;;;;7.30;2.20;;;;;;;36.31;20.85;99314.31;135501;1280;22533;-63
2023/08/10 14:15:37;;;;;;;4.70;1.50;;;;;;;36.55;21.69;99312.30;135510;1257;24457;-62
2023/08/10 14:18:39;;;;;;;5.30;1.50;;;;;;;36.52;20.59;99311.71;135524;1280;22550;-61
2023/08/10 14:21:42;;;;;;;7.90;2.10;;;;;;;36.67;20.95;99313.28;135603;1265;22536;-61
2023/08/10 14:24:44;;;;;;;5.90;1.50;;;;;;;36.87;21.47;99312.90;135591;1280;22629;-62
2023/08/10 14:27:46;;;;;;;6.80;1.90;;;;;;;37.12;20.65;99315.59;135599;1280;22565;-62